Latest Weather Observations for Ceduna

IDS60801

Issued at 8:41 pm CDT Sunday 24 January 2021 (issued every 10 minutes, with the page automatically refreshed every 10 minutes)

About weather observations | Map of weather stations | Latest weather observations for SA | Other Formats
Station Details ID: 018012 Name: CEDUNA AMO Lat: -32.13 Lon: 133.70 Height: 15.3 m
Data from the previous 72 hours. | See also: Recent months at Ceduna
Date/Time
CDT
Temp
°C
App
Temp
°C
Dew
Point
°C
Rel
Hum
%
Delta-T
°C
Wind Press
QNH
hPa
Press
MSL
hPa
Rain since
9am
mm
Dir  Spd
km/h
Gust
km/h
Spd
kts
Gust
kts
24/08:30pm 30.3 29.8 14.8 39 9.5 NNW 11 15 6 8 1001.0 1000.9 0.0
24/08:00pm 32.7 27.9 11.8 28 12.3 ENE 28 44 15 24 1000.3 1000.2 0.0
24/07:30pm 32.3 28.9 12.5 30 11.8 ENE 22 32 12 17 1000.4 1000.3 0.0
24/07:00pm 31.9 26.4 13.6 32 11.0 NNE 35 50 19 27 1001.3 1001.2 0.0
24/06:46pm 33.0 27.4 11.5 27 12.6 NNE 32 54 17 29 1001.3 1001.2 0.0
24/06:30pm 34.2 28.6 11.4 25 13.5 NNE 32 48 17 26 1001.1 1001.0 0.0
24/06:00pm 35.0 28.6 8.7 20 15.0 NE 32 44 17 24 1000.9 1000.8 0.0
24/05:30pm 35.6 29.4 9.2 20 15.2 NNE 32 39 17 21 1001.3 1001.2 0.0
24/05:00pm 36.1 29.2 7.2 17 16.1 NNE 33 46 18 25 1001.6 1001.5 0.0
24/04:30pm 37.2 29.7 6.3 15 17.1 NNE 35 48 19 26 1001.6 1001.5 0.0
24/04:01pm 37.9 30.7 5.8 14 17.7 NNE 33 52 18 28 1001.6 1001.5 0.0
24/04:00pm 38.1 30.9 6.0 14 17.7 NNE 33 50 18 27 1001.6 1001.5 0.0
24/03:30pm 38.4 30.9 6.2 14 17.9 NE 35 50 19 27 1001.8 1001.7 0.0
24/03:00pm 37.3 30.6 7.3 16 16.9 ENE 32 43 17 23 1002.0 1001.9 0.0
24/02:30pm 36.8 29.6 7.8 17 16.4 ENE 35 43 19 23 1002.1 1002.0 0.0
24/02:00pm 37.0 30.5 8.8 18 16.2 ENE 33 44 18 24 1002.4 1002.3 0.0
24/01:30pm 36.8 30.6 9.4 19 15.9 E 32 39 17 21 1002.8 1002.7 0.0
24/01:00pm 35.1 31.4 12.7 26 13.5 ESE 24 32 13 17 1003.2 1003.1 0.0
24/12:30pm 33.9 30.4 13.4 29 12.5 SE 24 32 13 17 1003.9 1003.8 0.0
24/12:00pm 31.8 27.8 14.0 34 10.8 SE 28 33 15 18 1004.0 1003.9 0.0
24/11:30am 30.4 25.2 14.5 38 9.7 SE 35 44 19 24 1004.1 1004.0 0.0
24/11:00am 29.2 26.5 15.7 44 8.3 SE 24 32 13 17 1005.3 1005.2 0.0
24/10:34am 26.5 24.5 15.5 50 6.7 E 20 48 11 26 1005.5 1005.4 0.0
24/10:30am 27.2 26.8 17.1 54 6.3 ENE 15 26 8 14 1005.5 1005.4 0.0
24/10:29am 27.3 26.7 16.6 52 6.6 ENE 15 20 8 11 1005.7 1005.6 0.0
24/10:00am 26.9 27.0 17.4 56 6.0 WNW 13 20 7 11 1007.8 1007.7 0.0
24/09:30am 26.8 27.2 16.4 53 6.4 NNW 9 11 5 6 1007.5 1007.4 0.0
24/09:00am 26.2 26.8 16.7 56 5.9 NW 9 15 5 8 1006.9 1006.8 0.0
24/08:30am 24.4 24.7 17.1 63 4.5 N 11 17 6 9 1006.2 1006.1 0.0
24/08:00am 23.2 23.5 17.9 72 3.3 SE 13 17 7 9 1004.9 1004.8 0.0
24/07:30am 22.5 22.4 17.8 75 2.9 SE 15 19 8 10 1004.5 1004.4 0.0
24/07:00am 22.8 22.7 17.9 74 3.1 WSW 15 20 8 11 1004.9 1004.8 0.0
24/06:30am 22.9 22.5 18.0 74 3.1 W 17 20 9 11 1005.3 1005.2 0.0
24/06:00am 22.9 21.4 17.6 72 3.3 WSW 22 28 12 15 1004.9 1004.8 0.0
24/05:30am 22.8 21.6 18.3 76 2.8 W 22 32 12 17 1005.1 1005.0 0.0
24/05:00am 22.8 21.7 17.7 73 3.2 WSW 20 28 11 15 1005.0 1004.9 0.0
24/04:30am 23.1 22.0 17.8 72 3.3 WSW 20 28 11 15 1005.0 1004.9 0.0
24/04:00am 23.4 21.9 17.8 71 3.5 W 22 32 12 17 1005.1 1005.0 0.0
24/03:30am 23.5 22.6 17.7 70 3.6 W 19 26 10 14 1005.0 1004.9 0.0
24/03:00am 23.6 21.5 17.1 67 4.0 WSW 24 33 13 18 1004.9 1004.8 0.0
24/02:30am 23.4 20.9 17.2 68 3.8 WSW 26 33 14 18 1005.1 1005.0 0.0
24/02:00am 23.9 20.7 17.2 66 4.1 WSW 30 39 16 21 1005.1 1005.0 0.0
24/01:30am 23.8 20.5 17.1 66 4.1 W 30 43 16 23 1005.6 1005.5 0.0
24/01:00am 23.8 20.4 16.8 65 4.3 W 30 39 16 21 1005.6 1005.5 0.0
24/12:30am 24.6 20.6 16.3 60 5.1 WSW 32 48 17 26 1005.3 1005.2 0.0
24/12:00am 24.6 22.8 16.1 59 5.2 W 20 28 11 15 1004.7 1004.6 0.0
 
Date/Time
CDT
Temp
°C
App
Temp
°C
Dew
Point
°C
Rel
Hum
%
Delta-T
°C
Wind Press
QNH
hPa
Press
MSL
hPa
Rain since
9am
mm
Dir  Spd
km/h
Gust
km/h
Spd
kts
Gust
kts
23/11:30pm 25.5 24.0 16.4 57 5.6 W 19 26 10 14 1004.9 1004.8 0.0
23/11:00pm 26.2 25.0 16.2 54 6.1 SW 17 26 9 14 1004.3 1004.2 0.0
23/10:30pm 26.7 25.0 14.8 48 7.2 WSW 17 24 9 13 1004.0 1003.9 0.0
23/10:00pm 29.1 25.0 13.7 38 9.2 W 28 44 15 24 1003.5 1003.4 0.0
23/09:43pm 34.0 31.7 10.6 24 13.6 NNE 13 35 7 19 1002.7 1002.6 0.0
23/09:30pm 36.8 32.6 1.5 11 18.1 NE 13 15 7 8 1002.0 1001.9 0.0
23/09:00pm 37.8 33.3 2.3 11 18.6 NE 15 17 8 9 1001.8 1001.7 0.0
23/08:30pm 39.3 35.2 2.1 10 19.6 NNE 13 17 7 9 1001.8 1001.7 0.0
23/08:00pm 40.8 35.5 1.7 9 20.5 NNE 19 28 10 15 1001.6 1001.5 0.0
23/07:30pm 41.9 36.7 2.6 9 21.1 NNE 19 26 10 14 1001.4 1001.3 0.0
23/07:00pm 42.5 37.5 1.3 8 21.7 NE 17 20 9 11 1001.3 1001.2 0.0
23/06:30pm 42.6 37.0 1.4 8 21.8 NE 20 32 11 17 1001.3 1001.2 0.0
23/06:00pm 42.7 37.1 1.5 8 21.9 NNE 20 26 11 14 1001.5 1001.4 0.0
23/05:30pm 43.4 39.6 2.0 8 22.2 N 11 26 6 14 1001.8 1001.7 0.0
23/05:00pm 43.6 38.1 2.1 8 22.2 NNE 20 33 11 18 1002.1 1002.0 0.0
23/04:30pm 43.4 37.2 2.0 8 22.2 NNE 24 30 13 16 1002.4 1002.3 0.0
23/04:00pm 43.3 37.4 1.9 8 22.1 N 22 33 12 18 1002.6 1002.5 0.0
23/03:30pm 43.6 38.1 2.1 8 22.3 N 20 35 11 19 1002.8 1002.7 0.0
23/03:00pm 43.4 38.2 3.7 9 21.8 N 20 32 11 17 1003.0 1002.9 0.0
23/02:30pm 43.1 37.1 3.4 9 21.7 N 24 35 13 19 1003.4 1003.3 0.0
23/02:00pm 42.9 36.9 3.3 9 21.5 N 24 35 13 19 1003.7 1003.6 0.0
23/01:47pm 43.6 36.9 3.8 9 21.9 N 28 46 15 25 1003.9 1003.8 0.0
23/01:30pm 43.3 36.6 3.6 9 21.8 N 28 43 15 23 1004.1 1004.0 0.0
23/01:00pm 43.6 37.3 3.8 9 21.9 N 26 33 14 18 1004.6 1004.5 0.0
23/12:36pm 42.0 35.1 2.6 9 21.1 NNE 28 46 15 25 1004.8 1004.7 0.0
23/12:30pm 42.1 35.2 2.7 9 21.2 N 28 39 15 21 1004.9 1004.8 0.0
23/12:00pm 41.2 34.2 2.0 9 20.8 NNE 28 41 15 22 1005.4 1005.3 0.0
23/11:30am 39.5 31.6 2.2 10 19.6 N 33 44 18 24 1005.7 1005.6 0.0
23/11:00am 38.4 29.6 1.4 10 19.1 NNE 37 48 20 26 1005.8 1005.7 0.0
23/10:30am 36.4 28.3 1.2 11 17.9 NNE 33 41 18 22 1006.1 1006.0 0.0
23/10:00am 34.3 26.2 -0.4 11 16.9 NNE 32 43 17 23 1006.5 1006.4 0.0
23/09:30am 32.5 24.5 0.6 13 15.7 NNE 32 41 17 22 1006.5 1006.4 0.0
23/09:00am 32.8 25.2 0.8 13 15.8 NNE 30 39 16 21 1006.4 1006.3 0.0
23/08:30am 31.7 23.6 -0.1 13 15.4 NE 32 43 17 23 1005.9 1005.8 0.0
23/08:00am 28.9 22.1 0.6 16 13.6 NE 26 33 14 18 1005.7 1005.6 0.0
23/07:30am 27.1 19.8 0.0 17 12.7 ENE 28 37 15 20 1005.3 1005.2 0.0
23/07:00am 26.5 18.7 -0.5 17 12.5 ENE 30 35 16 19 1005.2 1005.1 0.0
23/06:30am 26.5 18.6 -1.3 16 12.7 ENE 30 35 16 19 1005.1 1005.0 0.0
23/06:00am 26.8 19.9 -2.9 14 13.2 NE 24 30 13 16 1005.0 1004.9 0.0
23/05:30am 26.6 20.0 -3.1 14 13.1 ENE 22 30 12 16 1004.6 1004.5 0.0
23/05:00am 26.6 19.8 -2.1 15 12.9 ENE 24 28 13 15 1004.5 1004.4 0.0
23/04:30am 26.0 19.3 -0.9 17 12.3 ENE 24 30 13 16 1004.3 1004.2 0.0
23/04:00am 24.7 18.7 0.9 21 11.1 ENE 22 26 12 14 1004.6 1004.5 0.0
23/03:30am 24.1 17.9 2.3 24 10.4 ENE 24 28 13 15 1004.7 1004.6 0.0
23/03:00am 23.8 18.1 2.6 25 10.2 ENE 22 26 12 14 1005.2 1005.1 0.0
23/02:30am 23.7 17.6 2.5 25 10.2 ENE 24 30 13 16 1005.4 1005.3 0.0
23/02:00am 22.8 16.8 3.4 28 9.4 ENE 24 26 13 14 1005.7 1005.6 0.0
23/01:30am 23.7 18.5 3.6 27 9.8 E 20 28 11 15 1006.2 1006.1 0.0
23/01:00am 24.2 19.2 3.5 26 10.1 E 19 24 10 13 1006.7 1006.6 0.0
23/12:30am 24.3 19.6 3.0 25 10.3 ESE 17 22 9 12 1007.0 1006.9 0.0
23/12:00am 24.5 19.1 2.6 24 10.6 ESE 20 26 11 14 1007.1 1007.0 0.0
 
Date/Time
CDT
Temp
°C
App
Temp
°C
Dew
Point
°C
Rel
Hum
%
Delta-T
°C
Wind Press
QNH
hPa
Press
MSL
hPa
Rain since
9am
mm
Dir  Spd
km/h
Gust
km/h
Spd
kts
Gust
kts
22/11:30pm 23.9 19.4 4.3 28 9.7 ESE 17 20 9 11 1007.4 1007.3 0.0
22/11:00pm 24.7 20.2 6.0 30 9.6 ESE 19 22 10 12 1007.5 1007.4 0.0
22/10:30pm 25.7 21.1 5.8 28 10.3 SE 19 24 10 13 1007.7 1007.6 0.0
22/10:00pm 27.0 21.3 4.7 24 11.3 SE 24 32 13 17 1007.4 1007.3 0.0
22/09:30pm 26.8 21.7 7.8 30 10.2 SE 24 32 13 17 1007.3 1007.2 0.0
22/09:00pm 26.7 22.6 8.6 32 9.9 SE 20 28 11 15 1007.4 1007.3 0.0
22/08:30pm 27.9 21.6 5.5 24 11.6 SE 28 37 15 20 1007.2 1007.1 0.0
22/08:00pm 29.2 21.9 5.3 22 12.4 SE 33 41 18 22 1007.0 1006.9 0.0
22/07:30pm 30.1 22.6 6.1 22 12.8 SE 35 46 19 25 1006.8 1006.7 0.0
22/07:00pm 31.6 24.7 6.6 21 13.5 SSE 32 43 17 23 1006.9 1006.8 0.0
22/06:30pm 31.5 23.7 6.5 21 13.5 SSE 37 44 20 24 1006.9 1006.8 0.0
22/06:00pm 31.0 23.5 6.1 21 13.3 SSE 35 43 19 23 1007.2 1007.1 0.0
22/05:30pm 30.5 22.6 6.4 22 12.9 SSE 37 46 20 25 1007.4 1007.3 0.0
22/05:00pm 30.1 22.7 6.7 23 12.5 SSE 35 46 19 25 1007.6 1007.5 0.0
22/04:30pm 32.2 25.3 7.1 21 13.7 S 33 39 18 21 1008.0 1007.9 0.0
22/04:00pm 31.6 24.3 7.3 22 13.3 S 35 43 19 23 1008.3 1008.2 0.0
22/03:30pm 31.5 24.9 7.9 23 13.0 SSE 32 39 17 21 1008.4 1008.3 0.0
22/03:00pm 33.4 26.8 5.9 18 14.8 S 30 33 16 18 1008.7 1008.6 0.0
22/02:30pm 35.1 29.7 6.4 17 15.7 S 24 30 13 16 1008.9 1008.8 0.0
22/02:00pm 33.7 27.7 6.9 19 14.7 S 28 32 15 17 1009.1 1009.0 0.0
22/01:30pm 32.9 28.1 9.0 23 13.5 S 24 30 13 16 1009.5 1009.4 0.0
22/01:00pm 33.8 29.8 9.1 22 14.0 SSW 20 26 11 14 1009.5 1009.4 0.0
22/12:30pm 33.3 30.1 11.2 26 12.9 SW 19 22 10 12 1009.8 1009.7 0.0
22/12:00pm 33.2 30.4 9.9 24 13.4 SSW 15 20 8 11 1010.1 1010.0 0.0
22/11:30am 31.7 28.3 10.4 27 12.2 SSW 19 22 10 12 1010.2 1010.1 0.0
22/11:00am 31.5 28.5 9.1 25 12.6 SW 15 20 8 11 1010.1 1010.0 0.0
22/10:30am 32.9 29.1 3.8 16 15.1 NNE 13 17 7 9 1010.2 1010.1 0.0
22/10:00am 30.7 26.6 4.4 19 13.6 NNE 15 19 8 10 1010.2 1010.1 0.0
22/09:30am 28.5 24.8 4.7 22 12.2 NE 13 19 7 10 1010.3 1010.2 0.0
22/09:00am 25.6 22.0 5.2 27 10.4 ENE 13 17 7 9 1010.3 1010.2 0.0
22/08:30am 23.3 20.6 5.7 32 8.9 ENE 9 15 5 8 1010.4 1010.3 0.0
22/08:00am 19.0 18.4 7.4 47 5.9 CALM 0 0 0 0 1010.3 1010.2 0.0
22/07:30am 15.8 13.8 7.3 57 4.2 E 7 9 4 5 1010.0 1009.9 0.0
22/07:00am 14.3 11.9 7.1 62 3.5 ESE 9 11 5 6 1009.7 1009.6 0.0
22/06:30am 13.6 11.2 7.2 65 3.1 SE 9 13 5 7 1009.2 1009.1 0.0
22/06:00am 14.0 12.3 8.4 69 2.8 S 7 9 4 5 1009.0 1008.9 0.0
22/05:30am 14.5 14.3 8.9 69 2.8 CALM 0 0 0 0 1008.9 1008.8 0.0
22/05:00am 15.5 14.1 8.7 64 3.5 NNE 6 7 3 4 1008.7 1008.6 0.0
22/04:30am 15.4 13.1 8.9 65 3.3 N 11 13 6 7 1008.8 1008.7 0.0
22/04:00am 17.2 15.4 9.4 60 4.1 E 9 11 5 6 1008.9 1008.8 0.0
22/03:30am 17.2 15.8 9.4 60 4.1 E 7 9 4 5 1009.2 1009.1 0.0
22/03:00am 19.1 16.3 9.9 55 4.9 SE 15 17 8 9 1009.4 1009.3 0.0
22/02:30am 17.1 14.8 9.0 59 4.2 SE 11 13 6 7 1009.6 1009.5 0.0
22/02:00am 18.7 17.4 9.2 54 5.0 ESE 6 7 3 4 1010.0 1009.9 0.0
22/01:30am 19.2 16.6 9.4 53 5.2 ESE 13 15 7 8 1010.2 1010.1 0.0
22/01:00am 18.7 16.4 10.5 59 4.4 SE 13 13 7 7 1010.4 1010.3 0.0
22/12:30am 20.4 19.6 12.9 62 4.3 SE 9 13 5 7 1010.7 1010.6 0.0
22/12:00am 20.6 19.7 13.6 64 4.0 SE 11 15 6 8 1010.9 1010.8 0.0
 
Date/Time
CDT
Temp
°C
App
Temp
°C
Dew
Point
°C
Rel
Hum
%
Delta-T
°C
Wind Press
QNH
hPa
Press
MSL
hPa
Rain since
9am
mm
Dir  Spd
km/h
Gust
km/h
Spd
kts
Gust
kts
21/11:30pm 21.1 19.3 13.3 61 4.5 SE 15 20 8 11 1011.0 1010.9 0.0
21/11:00pm 21.6 19.8 13.2 59 4.8 SE 15 19 8 10 1010.9 1010.8 0.0
21/10:30pm 21.8 19.4 13.9 61 4.6 SSE 19 24 10 13 1010.8 1010.7 0.0
21/10:00pm 22.0 18.9 14.4 62 4.5 SSE 24 32 13 17 1010.5 1010.4 0.0
21/09:30pm 21.8 20.0 15.4 67 3.8 S 19 22 10 12 1010.5 1010.4 0.0
21/09:00pm 22.6 21.2 14.4 60 4.8 S 15 19 8 10 1010.3 1010.2 0.0

Other formats

Comma delimited format used in spreadsheet applications
http://www.bom.gov.au/fwo/IDS60801/IDS60801.94653.axf

JavaScript Object Notation format (JSON) in row-major order
http://www.bom.gov.au/fwo/IDS60801/IDS60801.94653.json

Data quality

Most of these data are generated automatically and are frequently updated. Quality checks on data are not normally performed. It is possible for incorrect values to appear. Refer to information at About Latest Weather Observations and please check the disclaimer before using these data.